LFST 030930Z AUTO 15003KT 090V220 9999 FEW045 OVC076 10/01 Q1018 NOSIG

TAF LFST 030500Z 0306/0406 17005KT 9999 BKN050 BECMG 0315/0317 33006KT CAVOK

 

Temperature in degrees Celsius: 10
Dew Point Temperature in degrees Celsius: 1

 

http://openflyers.com/case/icingChart.php?chart=2&temperature=10&dewPoint=1